Terminal Aerodrome Forecast
Issued by NWS

Home | Current Version | Previous Version | Text Only | Print | Product List | Glossary On
Versions: 1 2 3 4 5 6 7 8 9 10 11 12 13 14 15 16 17 18 19 20 21 22 23 24 25 26
000
FTUS41 KOKX 271900 AAA
TAFGON
TAF AMD
KGON 271949Z 2720/2818 33018G30KT 1SM -SN BLSN SCT010 BKN020
      TEMPO 2720/2724 1/2SM SN BLSN BKN010
     FM280000 33015G25KT 6SM -SN BLSN BKN020
     FM280300 33012G20KT P6SM -SHSN BKN020
     FM281400 33013G22KT P6SM BKN025=

USA.gov is the U.S. government's official web portal to all federal, state and local government web resources and services.